createdAt,value
2023-04-07T00:00:26.683Z,0
2023-04-07T00:01:26.680Z,0
2023-04-07T00:02:26.717Z,0
2023-04-07T00:03:26.777Z,0
2023-04-07T00:04:26.761Z,0
2023-04-07T00:05:26.683Z,0
2023-04-07T00:06:26.718Z,0
2023-04-07T00:07:26.684Z,0
2023-04-07T00:08:26.686Z,0
2023-04-07T00:09:26.692Z,0
2023-04-07T00:10:26.690Z,0
2023-04-07T00:11:26.687Z,0
2023-04-07T00:12:26.688Z,0
2023-04-07T00:13:26.859Z,0
2023-04-07T00:14:26.690Z,0
2023-04-07T00:15:26.691Z,0
2023-04-07T00:16:26.721Z,0
2023-04-07T00:17:26.710Z,0
2023-04-07T00:18:26.687Z,0
2023-04-07T00:19:26.695Z,0
2023-04-07T00:20:26.691Z,0
2023-04-07T00:21:26.693Z,0
2023-04-07T00:22:26.739Z,0
2023-04-07T00:23:26.693Z,0
2023-04-07T00:24:33.715Z,0
2023-04-07T00:25:26.699Z,0
2023-04-07T00:26:26.698Z,0
2023-04-07T00:27:26.696Z,0
2023-04-07T00:28:26.697Z,0
2023-04-07T00:29:26.697Z,0
2023-04-07T00:30:26.693Z,0
2023-04-07T00:31:26.814Z,0
2023-04-07T00:32:26.774Z,0
2023-04-07T00:33:26.694Z,0
2023-04-07T00:34:26.696Z,0
2023-04-07T00:35:26.767Z,0
2023-04-07T00:36:26.692Z,0
2023-04-07T00:37:26.699Z,0
2023-04-07T00:38:26.717Z,0
2023-04-07T00:39:26.696Z,0
2023-04-07T00:40:26.696Z,0
2023-04-07T00:41:26.697Z,0
2023-04-07T00:42:26.697Z,0
2023-04-07T00:43:26.698Z,0
2023-04-07T00:44:26.697Z,0
2023-04-07T00:45:26.698Z,0
2023-04-07T00:46:26.729Z,0
2023-04-07T00:47:26.777Z,0
2023-04-07T00:48:26.696Z,0
2023-04-07T00:49:26.696Z,0
2023-04-07T00:50:26.708Z,0
2023-04-07T00:51:26.700Z,0
2023-04-07T00:52:26.704Z,0
2023-04-07T00:53:26.698Z,0
2023-04-07T00:54:26.725Z,0
2023-04-07T00:55:26.699Z,0
2023-04-07T00:56:26.707Z,0
2023-04-07T00:57:26.701Z,0
2023-04-07T00:58:26.708Z,0
2023-04-07T00:59:26.704Z,0
2023-04-07T01:00:26.700Z,0
2023-04-07T01:01:26.850Z,0
2023-04-07T01:02:26.931Z,0
2023-04-07T01:03:26.882Z,0
2023-04-07T01:04:26.893Z,0
2023-04-07T01:05:26.703Z,0
2023-04-07T01:06:26.697Z,0
2023-04-07T01:07:26.705Z,0
2023-04-07T01:08:26.709Z,0
2023-04-07T01:09:26.705Z,0
2023-04-07T01:10:26.733Z,0
2023-04-07T01:11:26.706Z,0
2023-04-07T01:12:26.718Z,0
2023-04-07T01:13:26.709Z,0
2023-04-07T01:14:26.710Z,0
2023-04-07T01:15:26.701Z,0
2023-04-07T01:16:26.734Z,0
2023-04-07T01:17:26.732Z,0
2023-04-07T01:18:26.706Z,0
2023-04-07T01:19:26.712Z,0
2023-04-07T01:20:26.716Z,0
2023-04-07T01:21:26.711Z,0
2023-04-07T01:22:26.709Z,0
2023-04-07T01:23:26.711Z,0
2023-04-07T01:24:26.710Z,0
2023-04-07T01:25:26.711Z,0
2023-04-07T01:26:26.728Z,0
2023-04-07T01:27:26.703Z,0
2023-04-07T01:28:26.704Z,0
2023-04-07T01:29:26.715Z,0
2023-04-07T01:30:26.704Z,0
2023-04-07T01:31:26.911Z,0
2023-04-07T01:32:26.743Z,0
2023-04-07T01:33:26.720Z,0
2023-04-07T01:34:26.725Z,0
2023-04-07T01:35:26.739Z,0
2023-04-07T01:36:26.713Z,0
2023-04-07T01:37:26.719Z,0
2023-04-07T01:38:26.719Z,0
2023-04-07T01:39:26.724Z,0
2023-04-07T01:40:26.720Z,0
2023-04-07T01:41:26.729Z,0
2023-04-07T01:42:26.768Z,0
2023-04-07T01:43:26.741Z,0
2023-04-07T01:44:26.731Z,0
2023-04-07T01:45:26.727Z,0
2023-04-07T01:46:26.731Z,0
2023-04-07T01:47:26.794Z,0
2023-04-07T01:48:26.769Z,0
2023-04-07T01:49:26.745Z,0
2023-04-07T01:50:26.744Z,0
2023-04-07T01:51:26.739Z,0
2023-04-07T01:52:26.742Z,0
2023-04-07T01:53:26.746Z,0
2023-04-07T01:54:26.746Z,0
2023-04-07T01:55:26.763Z,0
2023-04-07T01:56:26.758Z,0
2023-04-07T01:57:26.749Z,0
2023-04-07T01:58:26.783Z,0
2023-04-07T01:59:26.756Z,0
2023-04-07T02:00:26.753Z,0
2023-04-07T02:01:26.789Z,0
2023-04-07T02:02:26.856Z,0
2023-04-07T02:03:26.869Z,0
2023-04-07T02:04:26.752Z,0
2023-04-07T02:05:26.759Z,0
2023-04-07T02:06:26.760Z,0
2023-04-07T02:07:26.760Z,0
2023-04-07T02:08:26.765Z,0
2023-04-07T02:09:26.761Z,0
2023-04-07T02:10:26.765Z,0
2023-04-07T02:11:26.767Z,0
2023-04-07T02:12:26.775Z,0
2023-04-07T02:13:26.771Z,0
2023-04-07T02:14:26.797Z,0
2023-04-07T02:15:26.774Z,0
2023-04-07T02:16:26.781Z,0
2023-04-07T02:17:26.793Z,0
2023-04-07T02:18:26.774Z,0
2023-04-07T02:19:26.776Z,0
2023-04-07T02:20:26.780Z,0
2023-04-07T02:21:26.778Z,0
2023-04-07T02:22:26.781Z,0
2023-04-07T02:23:26.782Z,0
2023-04-07T02:24:26.782Z,0
2023-04-07T02:25:26.784Z,0
2023-04-07T02:26:26.788Z,0
2023-04-07T02:27:26.792Z,0
2023-04-07T02:28:26.790Z,0
2023-04-07T02:29:26.789Z,0
2023-04-07T02:30:26.811Z,0
2023-04-07T02:31:26.794Z,0
2023-04-07T02:32:26.803Z,0
2023-04-07T02:33:26.788Z,0
2023-04-07T02:34:26.792Z,0
2023-04-07T02:35:26.788Z,0
2023-04-07T02:36:26.796Z,0
2023-04-07T02:37:26.787Z,0
2023-04-07T02:38:26.810Z,0
2023-04-07T02:39:26.790Z,0
2023-04-07T02:40:26.794Z,0
2023-04-07T02:41:26.797Z,0
2023-04-07T02:42:26.798Z,0
2023-04-07T02:43:26.800Z,0
2023-04-07T02:44:26.804Z,0
2023-04-07T02:45:26.796Z,0
2023-04-07T02:46:26.894Z,0
2023-04-07T02:47:26.821Z,0
2023-04-07T02:48:26.812Z,0
2023-04-07T02:49:26.808Z,0
2023-04-07T02:50:26.839Z,0
2023-04-07T02:51:26.808Z,0
2023-04-07T02:52:26.813Z,0
2023-04-07T02:53:26.832Z,0
2023-04-07T02:54:26.815Z,0
2023-04-07T02:55:26.856Z,0
2023-04-07T02:56:26.816Z,0
2023-04-07T02:57:26.813Z,0
2023-04-07T02:58:26.821Z,0
2023-04-07T02:59:26.815Z,0
2023-04-07T03:00:26.819Z,0
2023-04-07T03:01:26.861Z,0
2023-04-07T03:02:26.920Z,0
2023-04-07T03:03:26.984Z,0
2023-04-07T03:04:26.849Z,0
2023-04-07T03:05:26.841Z,0
2023-04-07T03:06:26.829Z,0
2023-04-07T03:07:26.840Z,0
2023-04-07T03:08:26.834Z,0
2023-04-07T03:09:26.834Z,0
2023-04-07T03:10:26.838Z,0
2023-04-07T03:11:26.841Z,0
2023-04-07T03:12:26.840Z,0
2023-04-07T03:13:26.837Z,0
2023-04-07T03:14:26.838Z,0
2023-04-07T03:15:26.843Z,0
2023-04-07T03:16:26.877Z,0
2023-04-07T03:17:26.874Z,0
2023-04-07T03:18:26.873Z,0
2023-04-07T03:19:26.846Z,0
2023-04-07T03:20:26.846Z,0
2023-04-07T03:21:26.849Z,0
2023-04-07T03:22:26.845Z,0
2023-04-07T03:23:26.852Z,0
2023-04-07T03:24:26.851Z,0
2023-04-07T03:25:26.852Z,0
2023-04-07T03:26:26.865Z,0
2023-04-07T03:27:26.858Z,0
2023-04-07T03:28:26.879Z,0
2023-04-07T03:29:26.856Z,0
2023-04-07T03:30:26.858Z,0
2023-04-07T03:31:26.860Z,0
2023-04-07T03:32:26.873Z,0
2023-04-07T03:33:26.866Z,0
2023-04-07T03:34:26.889Z,0
2023-04-07T03:35:26.872Z,0
2023-04-07T03:36:26.894Z,0
2023-04-07T03:37:26.876Z,0
2023-04-07T03:38:26.873Z,0
2023-04-07T03:39:26.872Z,0
2023-04-07T03:40:26.872Z,0
2023-04-07T03:41:26.872Z,0
2023-04-07T03:42:26.876Z,0
2023-04-07T03:43:26.879Z,0
2023-04-07T03:44:26.877Z,0
2023-04-07T03:45:26.879Z,0
2023-04-07T03:46:27.029Z,0
2023-04-07T03:47:26.904Z,0
2023-04-07T03:48:28.687Z,0
2023-04-07T03:49:26.884Z,0
2023-04-07T03:50:26.913Z,0
2023-04-07T03:51:26.885Z,0
2023-04-07T03:52:26.880Z,0
2023-04-07T03:53:26.886Z,0
2023-04-07T03:54:26.882Z,0
2023-04-07T03:55:26.894Z,0
2023-04-07T03:56:28.495Z,0
2023-04-07T03:57:26.888Z,0
2023-04-07T03:58:26.892Z,0
2023-04-07T03:59:26.889Z,0
2023-04-07T04:00:26.893Z,0
2023-04-07T04:01:26.905Z,0
2023-04-07T04:02:26.959Z,0
2023-04-07T04:03:26.956Z,0
2023-04-07T04:04:26.917Z,0
2023-04-07T04:05:26.897Z,0
2023-04-07T04:06:26.925Z,0
2023-04-07T04:07:26.902Z,0
2023-04-07T04:08:26.905Z,0
2023-04-07T04:09:26.909Z,0
2023-04-07T04:10:26.905Z,0
2023-04-07T04:11:26.904Z,0
2023-04-07T04:12:26.907Z,0
2023-04-07T04:13:26.911Z,0
2023-04-07T04:14:26.921Z,0
2023-04-07T04:15:26.911Z,0
2023-04-07T04:16:26.935Z,0
2023-04-07T04:17:27.057Z,0
2023-04-07T04:18:26.920Z,2
2023-04-07T04:19:26.915Z,2
2023-04-07T04:20:26.917Z,2
2023-04-07T04:21:26.916Z,2
2023-04-07T04:22:26.948Z,2
2023-04-07T04:23:26.922Z,5
2023-04-07T04:24:26.922Z,5
2023-04-07T04:25:26.935Z,5
2023-04-07T04:26:26.926Z,5
2023-04-07T04:27:26.926Z,5
2023-04-07T04:28:26.928Z,11
2023-04-07T04:29:26.925Z,11
2023-04-07T04:30:26.925Z,11
2023-04-07T04:31:26.982Z,11
2023-04-07T04:32:26.969Z,11
2023-04-07T04:33:26.934Z,22
2023-04-07T04:34:26.930Z,22
2023-04-07T04:35:26.932Z,22
2023-04-07T04:36:26.974Z,22
2023-04-07T04:37:26.933Z,22
2023-04-07T04:38:26.972Z,50
2023-04-07T04:39:26.948Z,50
2023-04-07T04:40:26.932Z,50
2023-04-07T04:41:26.935Z,50
2023-04-07T04:42:26.943Z,50
2023-04-07T04:43:26.940Z,88
2023-04-07T04:44:26.942Z,94
2023-04-07T04:45:26.941Z,94
2023-04-07T04:46:26.976Z,94
2023-04-07T04:47:26.977Z,94
2023-04-07T04:48:26.941Z,94
2023-04-07T04:49:26.947Z,141
2023-04-07T04:50:26.964Z,141
2023-04-07T04:51:26.942Z,141
2023-04-07T04:52:26.947Z,141
2023-04-07T04:53:26.956Z,141
2023-04-07T04:54:26.974Z,198
2023-04-07T04:55:26.952Z,198
2023-04-07T04:56:26.952Z,198
2023-04-07T04:57:26.966Z,198
2023-04-07T04:58:26.952Z,198
2023-04-07T04:59:26.959Z,266
2023-04-07T05:00:26.962Z,266
2023-04-07T05:01:26.980Z,266
2023-04-07T05:02:27.052Z,266
2023-04-07T05:03:27.189Z,266
2023-04-07T05:04:27.096Z,347
2023-04-07T05:05:26.957Z,347
2023-04-07T05:06:26.957Z,347
2023-04-07T05:07:26.964Z,347
2023-04-07T05:08:26.959Z,347
2023-04-07T05:09:26.960Z,501
2023-04-07T05:10:26.989Z,457
2023-04-07T05:11:26.968Z,457
2023-04-07T05:12:26.958Z,457
2023-04-07T05:13:26.964Z,457
2023-04-07T05:14:26.962Z,457
2023-04-07T05:15:26.967Z,556
2023-04-07T05:16:26.999Z,556
2023-04-07T05:17:27.012Z,556
2023-04-07T05:18:26.964Z,556
2023-04-07T05:19:26.964Z,556
2023-04-07T05:20:26.963Z,661
2023-04-07T05:21:26.970Z,661
2023-04-07T05:22:26.967Z,661
2023-04-07T05:23:26.969Z,661
2023-04-07T05:24:26.970Z,661
2023-04-07T05:25:26.975Z,862
2023-04-07T05:26:26.998Z,862
2023-04-07T05:27:26.971Z,862
2023-04-07T05:28:26.978Z,862
2023-04-07T05:29:26.982Z,862
2023-04-07T05:30:26.978Z,1548
2023-04-07T05:31:27.024Z,1548
2023-04-07T05:32:26.992Z,1548
2023-04-07T05:33:26.981Z,1548
2023-04-07T05:34:26.979Z,1548
2023-04-07T05:35:26.990Z,1885
2023-04-07T05:36:27.008Z,1885
2023-04-07T05:37:26.982Z,1885
2023-04-07T05:38:26.980Z,1885
2023-04-07T05:39:26.985Z,1885
2023-04-07T05:40:26.988Z,1789
2023-04-07T05:41:26.990Z,1789
2023-04-07T05:42:27.009Z,1789
2023-04-07T05:43:26.989Z,1789
2023-04-07T05:44:26.995Z,1789
2023-04-07T05:45:27.007Z,1994
2023-04-07T05:46:26.991Z,1994
2023-04-07T05:47:27.012Z,1994
2023-04-07T05:48:27.002Z,1994
2023-04-07T05:49:26.993Z,1994
2023-04-07T05:50:26.998Z,2544
2023-04-07T05:51:27.008Z,2544
2023-04-07T05:52:26.995Z,2544
2023-04-07T05:53:26.992Z,2544
2023-04-07T05:54:26.995Z,2544
2023-04-07T05:55:26.998Z,2374
2023-04-07T05:56:26.997Z,2374
2023-04-07T05:57:26.995Z,2374
2023-04-07T05:58:27.024Z,2374
2023-04-07T05:59:27.001Z,2374
2023-04-07T06:00:27.008Z,2106
2023-04-07T06:01:27.892Z,2106
2023-04-07T06:02:27.105Z,2106
2023-04-07T06:03:27.094Z,2106
2023-04-07T06:04:27.008Z,2106
2023-04-07T06:05:27.023Z,2812
2023-04-07T06:06:27.006Z,2812
2023-04-07T06:07:27.007Z,2812
2023-04-07T06:08:27.011Z,2812
2023-04-07T06:09:27.014Z,2812
2023-04-07T06:10:27.013Z,2772
2023-04-07T06:11:27.015Z,2772
2023-04-07T06:12:27.007Z,2772
2023-04-07T06:13:27.008Z,2772
2023-04-07T06:14:27.032Z,2772
2023-04-07T06:15:27.012Z,3130
2023-04-07T06:16:27.046Z,3130
2023-04-07T06:17:27.023Z,3130
2023-04-07T06:18:27.010Z,3130
2023-04-07T06:19:27.012Z,3130
2023-04-07T06:20:27.016Z,2777
2023-04-07T06:21:27.011Z,2777
2023-04-07T06:22:27.014Z,2777
2023-04-07T06:23:27.015Z,2841
2023-04-07T06:24:27.020Z,2841
2023-04-07T06:25:27.039Z,2841
2023-04-07T06:26:27.020Z,2841
2023-04-07T06:27:27.016Z,2841
2023-04-07T06:28:27.017Z,2149
2023-04-07T06:29:27.018Z,2149
2023-04-07T06:30:27.094Z,2149
2023-04-07T06:31:27.025Z,2149
2023-04-07T06:32:27.026Z,2149
2023-04-07T06:33:27.016Z,2380
2023-04-07T06:34:27.018Z,2380
2023-04-07T06:35:27.023Z,2380
2023-04-07T06:36:27.036Z,2380
2023-04-07T06:37:27.016Z,2380
2023-04-07T06:38:27.016Z,2277
2023-04-07T06:39:27.016Z,2277
2023-04-07T06:40:27.019Z,2277
2023-04-07T06:41:27.022Z,2277
2023-04-07T06:42:27.017Z,2277
2023-04-07T06:43:27.020Z,2587
2023-04-07T06:44:27.020Z,2587
2023-04-07T06:45:27.015Z,2587
2023-04-07T06:46:27.095Z,2587
2023-04-07T06:47:27.030Z,2587
2023-04-07T06:48:27.017Z,3271
2023-04-07T06:49:27.017Z,3271
2023-04-07T06:50:27.021Z,3271
2023-04-07T06:51:27.027Z,3271
2023-04-07T06:52:27.019Z,3271
2023-04-07T06:53:27.020Z,3562
2023-04-07T06:54:27.020Z,3562
2023-04-07T06:55:27.041Z,3562
2023-04-07T06:56:27.021Z,3562
2023-04-07T06:57:27.020Z,3562
2023-04-07T06:58:27.021Z,4361
2023-04-07T06:59:27.018Z,4361
2023-04-07T07:00:27.027Z,4361
2023-04-07T07:01:27.063Z,4934
2023-04-07T07:02:27.161Z,4996
2023-04-07T07:03:27.082Z,5094
2023-04-07T07:04:27.219Z,5308
2023-04-07T07:05:27.027Z,5283
2023-04-07T07:06:27.031Z,5283
2023-04-07T07:07:27.027Z,5283
2023-04-07T07:08:27.032Z,5283
2023-04-07T07:09:27.027Z,5283
2023-04-07T07:10:27.272Z,5821
2023-04-07T07:11:27.032Z,5821
2023-04-07T07:12:27.035Z,5821
2023-04-07T07:13:27.032Z,5821
2023-04-07T07:14:27.030Z,5821
2023-04-07T07:15:27.044Z,6080
2023-04-07T07:16:27.037Z,6080
2023-04-07T07:17:27.052Z,6080
2023-04-07T07:18:27.059Z,6080
2023-04-07T07:19:27.035Z,6080
2023-04-07T07:20:27.043Z,6521
2023-04-07T07:21:27.039Z,6521
2023-04-07T07:22:27.039Z,6907
2023-04-07T07:23:27.038Z,7044
2023-04-07T07:24:27.046Z,7044
2023-04-07T07:25:27.048Z,7044
2023-04-07T07:26:27.051Z,7018
2023-04-07T07:27:27.051Z,7018
2023-04-07T07:28:27.070Z,7018
2023-04-07T07:29:27.222Z,7018
2023-04-07T07:30:27.072Z,7018
2023-04-07T07:31:27.068Z,3487
2023-04-07T07:32:27.069Z,3339
2023-04-07T07:33:27.053Z,3243
2023-04-07T07:34:27.090Z,3226
2023-04-07T07:35:27.059Z,3226
2023-04-07T07:36:27.073Z,3683
2023-04-07T07:37:27.073Z,3583
2023-04-07T07:38:27.063Z,3583
2023-04-07T07:39:27.073Z,3583
2023-04-07T07:40:27.061Z,3583
2023-04-07T07:41:27.073Z,3583
2023-04-07T07:42:27.069Z,3791
2023-04-07T07:43:27.071Z,3791
2023-04-07T07:44:27.070Z,3791
2023-04-07T07:45:27.069Z,3791
2023-04-07T07:46:27.081Z,3791
2023-04-07T07:47:27.093Z,3491
2023-04-07T07:48:27.072Z,3196
2023-04-07T07:49:27.069Z,3196
2023-04-07T07:50:27.106Z,3138
2023-04-07T07:51:27.081Z,3138
2023-04-07T07:52:27.080Z,3138
2023-04-07T07:53:27.072Z,3138
2023-04-07T07:54:27.079Z,3138
2023-04-07T07:55:27.085Z,2075
2023-04-07T07:56:27.083Z,2075
2023-04-07T07:57:27.085Z,2075
2023-04-07T07:58:27.081Z,2075
2023-04-07T07:59:27.090Z,2075
2023-04-07T08:00:27.081Z,2005
2023-04-07T08:01:27.154Z,2005
2023-04-07T08:02:27.146Z,2005
2023-04-07T08:03:27.152Z,2005
2023-04-07T08:04:27.142Z,2005
2023-04-07T08:05:27.089Z,1872
2023-04-07T08:06:27.115Z,1872
2023-04-07T08:07:27.089Z,1872
2023-04-07T08:08:27.095Z,1872
2023-04-07T08:09:27.100Z,1872
2023-04-07T08:10:27.096Z,1854
2023-04-07T08:11:27.094Z,1854
2023-04-07T08:12:27.099Z,1854
2023-04-07T08:13:27.101Z,1854
2023-04-07T08:14:27.102Z,1854
2023-04-07T08:15:27.100Z,1749
2023-04-07T08:16:27.154Z,1749
2023-04-07T08:17:27.120Z,1749
2023-04-07T08:18:27.100Z,1749
2023-04-07T08:19:27.104Z,1749
2023-04-07T08:20:27.121Z,1806
2023-04-07T08:21:27.104Z,1806
2023-04-07T08:22:27.129Z,1806
2023-04-07T08:23:27.110Z,1806
2023-04-07T08:24:27.108Z,1806
2023-04-07T08:25:27.109Z,2202
2023-04-07T08:26:27.110Z,2202
2023-04-07T08:27:27.120Z,2202
2023-04-07T08:28:27.136Z,2202
2023-04-07T08:29:27.112Z,2202
2023-04-07T08:30:27.111Z,3261
2023-04-07T08:31:27.127Z,3261
2023-04-07T08:32:27.132Z,3261
2023-04-07T08:33:27.113Z,3555
2023-04-07T08:34:27.110Z,3516
2023-04-07T08:35:27.120Z,3516
2023-04-07T08:36:27.143Z,3576
2023-04-07T08:37:27.114Z,3505
2023-04-07T08:38:27.141Z,3505
2023-04-07T08:39:27.119Z,4372
2023-04-07T08:40:27.115Z,4455
2023-04-07T08:41:27.115Z,4455
2023-04-07T08:42:27.114Z,4455
2023-04-07T08:43:27.122Z,3954
2023-04-07T08:44:27.117Z,4016
2023-04-07T08:45:27.118Z,4016
2023-04-07T08:46:27.167Z,4016
2023-04-07T08:47:27.132Z,4016
2023-04-07T08:48:27.134Z,4016
2023-04-07T08:49:27.125Z,4133
2023-04-07T08:50:27.131Z,4133
2023-04-07T08:51:27.124Z,4133
2023-04-07T08:52:27.127Z,4133
2023-04-07T08:53:27.128Z,4133
2023-04-07T08:54:27.155Z,5277
2023-04-07T08:55:27.129Z,5277
2023-04-07T08:56:27.130Z,5277
2023-04-07T08:57:27.128Z,6518
2023-04-07T08:58:27.128Z,6518
2023-04-07T08:59:27.129Z,6518
2023-04-07T09:00:27.135Z,7076
2023-04-07T09:01:27.178Z,6578
2023-04-07T09:02:27.228Z,4212
2023-04-07T09:03:27.247Z,4212
2023-04-07T09:04:27.137Z,4212
2023-04-07T09:05:27.139Z,4212
2023-04-07T09:06:27.141Z,4212
2023-04-07T09:07:27.141Z,3321
2023-04-07T09:08:27.145Z,3321
2023-04-07T09:09:27.152Z,3321
2023-04-07T09:10:27.183Z,3321
2023-04-07T09:11:27.145Z,3321
2023-04-07T09:12:27.142Z,3129
2023-04-07T09:13:27.148Z,3129
2023-04-07T09:14:27.145Z,3129
2023-04-07T09:15:27.152Z,3129
2023-04-07T09:16:27.186Z,3325
2023-04-07T09:17:27.170Z,3253
2023-04-07T09:18:27.157Z,3253
2023-04-07T09:19:27.161Z,3253
2023-04-07T09:20:27.153Z,3253
2023-04-07T09:21:27.169Z,3253
2023-04-07T09:22:27.157Z,2460
2023-04-07T09:23:27.158Z,2460
2023-04-07T09:24:27.168Z,2460
2023-04-07T09:25:27.213Z,2460
2023-04-07T09:26:27.206Z,2460
2023-04-07T09:27:27.166Z,2238
2023-04-07T09:28:27.161Z,2238
2023-04-07T09:29:27.169Z,2238
2023-04-07T09:30:27.165Z,2238
2023-04-07T09:31:27.169Z,2238
2023-04-07T09:32:27.175Z,2119
2023-04-07T09:33:27.189Z,2119
2023-04-07T09:34:27.171Z,2119
2023-04-07T09:35:27.171Z,1960
2023-04-07T09:36:27.180Z,1960
2023-04-07T09:37:27.172Z,1960
2023-04-07T09:38:27.166Z,2087
2023-04-07T09:39:27.178Z,2087
2023-04-07T09:40:27.191Z,2087
2023-04-07T09:41:27.196Z,2087
2023-04-07T09:42:27.194Z,2087
2023-04-07T09:43:27.175Z,1898
2023-04-07T09:44:27.176Z,1898
2023-04-07T09:45:34.402Z,1898
2023-04-07T09:46:27.187Z,1898
2023-04-07T09:47:27.202Z,1898
2023-04-07T09:48:27.177Z,1782
2023-04-07T09:49:27.182Z,1782
2023-04-07T09:50:27.205Z,1782
2023-04-07T09:51:27.185Z,1782
2023-04-07T09:52:27.188Z,1782
2023-04-07T09:53:27.190Z,1675
2023-04-07T09:54:27.188Z,1675
2023-04-07T09:55:27.187Z,1675
2023-04-07T09:56:27.197Z,1675
2023-04-07T09:57:27.196Z,1675
2023-04-07T09:58:27.234Z,1613
2023-04-07T09:59:27.194Z,1613
2023-04-07T10:00:27.201Z,1613
2023-04-07T10:01:27.266Z,1613
2023-04-07T10:02:27.250Z,1613
2023-04-07T10:03:27.220Z,1617
2023-04-07T10:04:27.244Z,1617
2023-04-07T10:05:27.208Z,1617
2023-04-07T10:06:27.206Z,1617
2023-04-07T10:07:27.222Z,1617
2023-04-07T10:08:27.211Z,1617
2023-04-07T10:09:27.206Z,1617
2023-04-07T10:10:27.210Z,1617
2023-04-07T10:11:27.211Z,1617
2023-04-07T10:12:27.212Z,1704
2023-04-07T10:13:27.221Z,1704
2023-04-07T10:14:27.240Z,1704
2023-04-07T10:15:27.216Z,1704
2023-04-07T10:16:27.237Z,1704
2023-04-07T10:17:27.243Z,1710
2023-04-07T10:18:27.219Z,1710
2023-04-07T10:19:27.217Z,1710
2023-04-07T10:20:27.219Z,1724
2023-04-07T10:21:27.222Z,1724
2023-04-07T10:22:27.228Z,1724
2023-04-07T10:23:27.221Z,1724
2023-04-07T10:24:27.223Z,1724
2023-04-07T10:25:27.256Z,1869
2023-04-07T10:26:27.225Z,1869
2023-04-07T10:27:27.228Z,1869
2023-04-07T10:28:27.225Z,1869
2023-04-07T10:29:27.229Z,1869
2023-04-07T10:30:27.262Z,2239
2023-04-07T10:31:27.242Z,2239
2023-04-07T10:32:27.296Z,2239
2023-04-07T10:33:27.230Z,2239
2023-04-07T10:34:27.233Z,2239
2023-04-07T10:35:27.230Z,2587
2023-04-07T10:36:27.227Z,2587
2023-04-07T10:37:27.229Z,2587
2023-04-07T10:38:27.240Z,2587
2023-04-07T10:39:27.228Z,2587
2023-04-07T10:40:27.236Z,3159
2023-04-07T10:41:27.232Z,3159
2023-04-07T10:42:27.237Z,3159
2023-04-07T10:43:27.236Z,3159
2023-04-07T10:44:27.236Z,3777
2023-04-07T10:45:27.238Z,3777
2023-04-07T10:46:27.278Z,3863
2023-04-07T10:47:27.276Z,3863
2023-04-07T10:48:27.238Z,3648
2023-04-07T10:49:27.245Z,3648
2023-04-07T10:50:27.242Z,3614
2023-04-07T10:51:27.248Z,3614
2023-04-07T10:52:27.243Z,3614
2023-04-07T10:53:27.239Z,3757
2023-04-07T10:54:29.190Z,3757
2023-04-07T10:55:27.246Z,3757
2023-04-07T10:56:27.244Z,4386
2023-04-07T10:57:27.257Z,4472
2023-04-07T10:58:27.245Z,4511
2023-04-07T10:59:27.258Z,4622
2023-04-07T11:00:27.245Z,4622
2023-04-07T11:01:27.364Z,4622
2023-04-07T11:02:27.423Z,4622
2023-04-07T11:03:27.343Z,4622
2023-04-07T11:04:27.404Z,3727
2023-04-07T11:05:27.253Z,3727
2023-04-07T11:06:27.255Z,3727
2023-04-07T11:07:27.253Z,3727
2023-04-07T11:08:27.256Z,3727
2023-04-07T11:09:27.256Z,3403
2023-04-07T11:10:27.260Z,3403
2023-04-07T11:11:27.255Z,3403
2023-04-07T11:12:27.253Z,3450
2023-04-07T11:13:27.261Z,3450
2023-04-07T11:14:27.258Z,3450
2023-04-07T11:15:27.261Z,3450
2023-04-07T11:16:27.295Z,3450
2023-04-07T11:17:27.320Z,3596
2023-04-07T11:18:27.286Z,3596
2023-04-07T11:19:27.260Z,3596
2023-04-07T11:20:27.260Z,3596
2023-04-07T11:21:27.262Z,3599
2023-04-07T11:22:30.121Z,3599
2023-04-07T11:23:27.272Z,3599
2023-04-07T11:24:27.266Z,3541
2023-04-07T11:25:27.261Z,3541
2023-04-07T11:26:27.262Z,3593
2023-04-07T11:27:27.268Z,3674
2023-04-07T11:28:27.264Z,3674
2023-04-07T11:29:27.265Z,3822
2023-04-07T11:30:27.263Z,3799
2023-04-07T11:31:27.335Z,3827
2023-04-07T11:32:27.284Z,3877
2023-04-07T11:33:27.278Z,3919
2023-04-07T11:34:27.291Z,3919
2023-04-07T11:35:27.269Z,4218
2023-04-07T11:36:27.269Z,4218
2023-04-07T11:37:27.270Z,4520
2023-04-07T11:38:27.273Z,4471
2023-04-07T11:39:27.268Z,4471
2023-04-07T11:40:27.268Z,4471
2023-04-07T11:41:27.269Z,4471
2023-04-07T11:42:27.269Z,4798
2023-04-07T11:43:27.266Z,4714
2023-04-07T11:44:27.268Z,4407
2023-04-07T11:45:27.270Z,4346
2023-04-07T11:46:27.297Z,4301
2023-04-07T11:47:27.269Z,4224
2023-04-07T11:48:27.268Z,4208
2023-04-07T11:49:27.263Z,4343
2023-04-07T11:50:27.295Z,4343
2023-04-07T11:51:27.267Z,4343
2023-04-07T11:52:27.266Z,4246
2023-04-07T11:53:27.270Z,4246
2023-04-07T11:54:27.270Z,4246
2023-04-07T11:55:27.271Z,4246
2023-04-07T11:56:27.270Z,4246
2023-04-07T11:57:27.275Z,4267
2023-04-07T11:58:27.274Z,4267
2023-04-07T11:59:27.280Z,4267
2023-04-07T12:00:27.272Z,4267
2023-04-07T12:01:27.285Z,4267
2023-04-07T12:02:27.362Z,4251
2023-04-07T12:03:27.356Z,4251
2023-04-07T12:04:27.328Z,4251
2023-04-07T12:05:27.282Z,4251
2023-04-07T12:06:27.309Z,4251
2023-04-07T12:07:28.365Z,4186
2023-04-07T12:08:27.283Z,4186
2023-04-07T12:09:27.299Z,4186
2023-04-07T12:10:27.292Z,4186
2023-04-07T12:11:27.284Z,3937
2023-04-07T12:12:27.298Z,3937
2023-04-07T12:13:27.285Z,3933
2023-04-07T12:14:27.291Z,3919
2023-04-07T12:15:27.290Z,3959
2023-04-07T12:16:27.322Z,3929
2023-04-07T12:17:27.374Z,3940
2023-04-07T12:18:27.287Z,3942
2023-04-07T12:19:27.304Z,3966
2023-04-07T12:20:27.298Z,3896
2023-04-07T12:21:27.293Z,3846
2023-04-07T12:22:27.319Z,3813
2023-04-07T12:23:27.297Z,3813
2023-04-07T12:24:27.300Z,3813
2023-04-07T12:25:27.296Z,3668
2023-04-07T12:26:27.298Z,3622
2023-04-07T12:27:36.013Z,3553
2023-04-07T12:28:27.297Z,3540
2023-04-07T12:29:27.302Z,3535
2023-04-07T12:30:27.295Z,3520
2023-04-07T12:31:27.377Z,3406
2023-04-07T12:32:27.308Z,3406
2023-04-07T12:33:27.301Z,3406
2023-04-07T12:34:27.312Z,3406
2023-04-07T12:35:27.314Z,3406
2023-04-07T12:36:27.309Z,3226
2023-04-07T12:37:27.314Z,3226
2023-04-07T12:38:27.326Z,3187
2023-04-07T12:39:27.302Z,3059
2023-04-07T12:40:27.303Z,3059
2023-04-07T12:41:27.306Z,3005
2023-04-07T12:42:27.330Z,2973
2023-04-07T12:43:27.304Z,2972
2023-04-07T12:44:27.302Z,2921
2023-04-07T12:45:27.305Z,2921
2023-04-07T12:46:27.390Z,2921
2023-04-07T12:47:27.320Z,2781
2023-04-07T12:48:27.336Z,2777
2023-04-07T12:49:27.306Z,2777
2023-04-07T12:50:27.311Z,2777
2023-04-07T12:51:27.311Z,2777
2023-04-07T12:52:27.311Z,2723
2023-04-07T12:53:27.308Z,2723
2023-04-07T12:54:27.335Z,2723
2023-04-07T12:55:27.311Z,2624
2023-04-07T12:56:27.315Z,2583
2023-04-07T12:57:27.309Z,2547
2023-04-07T12:58:27.322Z,2547
2023-04-07T12:59:27.312Z,2547
2023-04-07T13:00:27.317Z,2547
2023-04-07T13:01:27.431Z,2439
2023-04-07T13:02:27.490Z,2391
2023-04-07T13:03:27.606Z,2348
2023-04-07T13:04:27.457Z,2314
2023-04-07T13:05:27.320Z,2314
2023-04-07T13:06:27.319Z,2314
2023-04-07T13:07:27.320Z,2314
2023-04-07T13:08:27.366Z,2314
2023-04-07T13:09:27.327Z,2148
2023-04-07T13:10:27.353Z,2148
2023-04-07T13:11:27.318Z,2148
2023-04-07T13:12:27.323Z,2148
2023-04-07T13:13:27.321Z,2148
2023-04-07T13:14:27.329Z,2084
2023-04-07T13:15:27.324Z,2084
2023-04-07T13:16:27.344Z,2084
2023-04-07T13:17:27.359Z,2084
2023-04-07T13:18:27.335Z,2084
2023-04-07T13:19:27.333Z,1964
2023-04-07T13:20:27.327Z,1964
2023-04-07T13:21:45.092Z,1964
2023-04-07T13:22:27.543Z,1964
2023-04-07T13:23:27.329Z,1862
2023-04-07T13:24:27.328Z,1862
2023-04-07T13:25:27.330Z,1862
2023-04-07T13:26:27.363Z,1862
2023-04-07T13:27:27.330Z,1862
2023-04-07T13:28:27.328Z,1731
2023-04-07T13:29:27.332Z,1731
2023-04-07T13:30:27.391Z,1731
2023-04-07T13:31:27.334Z,1731
2023-04-07T13:32:27.376Z,1731
2023-04-07T13:33:27.341Z,1538
2023-04-07T13:34:27.345Z,1532
2023-04-07T13:35:27.350Z,1569
2023-04-07T13:36:27.337Z,1569
2023-04-07T13:37:27.345Z,1536
2023-04-07T13:38:27.338Z,1536
2023-04-07T13:39:27.339Z,1536
2023-04-07T13:40:27.339Z,1536
2023-04-07T13:41:27.345Z,1536
2023-04-07T13:42:27.370Z,1566
2023-04-07T13:43:27.341Z,1566
2023-04-07T13:44:27.345Z,1609
2023-04-07T13:45:27.343Z,1609
2023-04-07T13:46:28.717Z,1609
2023-04-07T13:47:27.399Z,1658
2023-04-07T13:48:27.349Z,1658